createdAt,value
2022-11-27T00:01:23.884Z,102220.13
2022-11-27T00:03:50.891Z,102209.69
2022-11-27T00:06:19.988Z,102215.31
2022-11-27T00:08:47.170Z,102207.88
2022-11-27T00:11:17.435Z,102208.94
2022-11-27T00:13:45.262Z,102196.84
2022-11-27T00:16:12.921Z,102204.88
2022-11-27T00:18:39.717Z,102192.19
2022-11-27T00:21:09.194Z,102190.91
2022-11-27T00:23:35.913Z,102180.31
2022-11-27T00:26:02.743Z,102187.69
2022-11-27T00:28:29.825Z,102176.88
2022-11-27T00:31:04.065Z,102187.50
2022-11-27T00:33:31.137Z,102185.41
2022-11-27T00:36:02.569Z,102169.97
2022-11-27T00:38:29.093Z,102170.66
2022-11-27T00:40:59.751Z,102163.50
2022-11-27T00:43:26.223Z,102157.56
2022-11-27T00:45:52.670Z,102157.25
2022-11-27T00:48:19.225Z,102162.75
2022-11-27T00:50:45.736Z,102158.31
2022-11-27T00:53:12.226Z,102164.56
2022-11-27T00:55:38.703Z,102165.97
2022-11-27T00:58:05.135Z,102158.81
2022-11-27T01:00:31.620Z,102161.50
2022-11-27T01:02:58.190Z,102155.84
2022-11-27T01:05:24.664Z,102155.38
2022-11-27T01:07:51.143Z,102159.03
2022-11-27T01:10:17.650Z,102166.31
2022-11-27T01:12:44.059Z,102152.72
2022-11-27T01:15:11.011Z,102147.44
2022-11-27T01:17:37.512Z,102147.25
2022-11-27T01:20:04.203Z,102143.63
2022-11-27T01:22:30.641Z,102140.75
2022-11-27T01:24:57.109Z,102134.84
2022-11-27T01:27:23.493Z,102131.28
2022-11-27T01:29:49.920Z,102127.78
2022-11-27T01:32:16.429Z,102125.47
2022-11-27T01:34:42.886Z,102128.41
2022-11-27T01:37:09.325Z,102118.44
2022-11-27T01:39:35.831Z,102134.38
2022-11-27T01:42:02.286Z,102124.22
2022-11-27T01:44:28.727Z,102128.91
2022-11-27T01:47:02.659Z,102121.75
2022-11-27T01:49:32.080Z,102104.59
2022-11-27T01:52:07.566Z,102120.97
2022-11-27T01:54:42.208Z,102095.03
2022-11-27T01:57:16.305Z,102102.88
2022-11-27T01:59:43.997Z,102102.00
2022-11-27T02:02:10.503Z,102082.81
2022-11-27T02:04:37.513Z,102073.81
2022-11-27T02:07:04.197Z,102066.53
2022-11-27T02:09:31.375Z,102053.69
2022-11-27T02:12:15.246Z,102047.78
2022-11-27T02:14:59.644Z,102056.97
2022-11-27T02:17:37.881Z,102057.75
2022-11-27T02:20:21.895Z,102046.81
2022-11-27T02:23:26.197Z,102033.41
2022-11-27T02:26:07.933Z,102032.41
2022-11-27T02:29:04.959Z,102022.75
2022-11-27T02:31:49.890Z,102017.47
2022-11-27T02:34:49.137Z,102011.66
2022-11-27T02:37:27.492Z,102016.72
2022-11-27T02:40:42.707Z,102023.88
2022-11-27T02:43:15.741Z,102019.09
2022-11-27T02:45:46.218Z,102036.66
2022-11-27T02:48:15.640Z,102028.19
2022-11-27T02:50:44.350Z,102036.91
2022-11-27T02:53:17.173Z,102042.25
2022-11-27T02:55:45.835Z,102037.19
2022-11-27T02:58:19.190Z,102037.41
2022-11-27T03:00:47.854Z,102032.78
2022-11-27T03:03:19.004Z,102030.16
2022-11-27T03:05:49.588Z,102026.19
2022-11-27T03:08:24.906Z,102016.84
2022-11-27T03:11:03.062Z,102027.34
2022-11-27T03:13:32.605Z,102031.09
2022-11-27T03:16:10.791Z,102022.75
2022-11-27T03:18:43.762Z,102014.88
2022-11-27T03:21:48.836Z,102004.38
2022-11-27T03:24:15.431Z,102017.47
2022-11-27T03:26:43.624Z,102017.47
2022-11-27T03:29:14.889Z,102016.72
2022-11-27T03:31:41.760Z,102011.91
2022-11-27T03:34:08.382Z,102028.69
2022-11-27T03:36:34.858Z,102020.09
2022-11-27T03:39:01.534Z,102026.13
2022-11-27T03:41:50.741Z,102024.19
2022-11-27T03:44:32.805Z,102011.28
2022-11-27T03:47:21.080Z,102003.63
2022-11-27T03:50:12.538Z,102003.53
2022-11-27T03:53:00.834Z,102000.56
2022-11-27T03:55:49.478Z,102001.50
2022-11-27T03:58:24.334Z,102010.50
2022-11-27T04:00:52.597Z,102005.31
2022-11-27T04:03:28.567Z,101997.97
2022-11-27T04:05:55.522Z,101994.75
2022-11-27T04:08:22.623Z,101987.00
2022-11-27T04:10:49.366Z,101977.53
2022-11-27T04:13:16.192Z,101991.56
2022-11-27T04:15:42.664Z,101979.22
2022-11-27T04:18:09.226Z,101983.78
2022-11-27T04:20:35.808Z,101989.34
2022-11-27T04:23:02.341Z,101991.47
2022-11-27T04:25:28.804Z,102011.34
2022-11-27T04:27:55.638Z,101997.94
2022-11-27T04:30:22.495Z,101997.94
2022-11-27T04:32:49.135Z,101992.28
2022-11-27T04:35:15.614Z,101986.88
2022-11-27T04:37:41.999Z,101998.25
2022-11-27T04:40:09.072Z,102002.44
2022-11-27T04:42:35.531Z,101991.28
2022-11-27T04:45:01.981Z,101990.53
2022-11-27T04:47:28.490Z,101986.56
2022-11-27T04:49:54.963Z,101984.13
2022-11-27T04:52:21.474Z,101975.19
2022-11-27T04:54:47.922Z,101974.38
2022-11-27T04:57:14.377Z,101971.16
2022-11-27T04:59:40.924Z,101960.97
2022-11-27T05:02:07.463Z,101951.13
2022-11-27T05:04:34.119Z,101952.09
2022-11-27T05:07:00.528Z,101946.31
2022-11-27T05:09:27.105Z,101940.28
2022-11-27T05:11:53.510Z,101937.75
2022-11-27T05:14:21.882Z,101940.41
2022-11-27T05:16:51.472Z,101934.38
2022-11-27T05:19:20.030Z,101933.13
2022-11-27T05:21:47.548Z,101926.28
2022-11-27T05:24:15.372Z,101936.56
2022-11-27T05:26:42.349Z,101927.78
2022-11-27T05:29:10.760Z,101922.84
2022-11-27T05:31:38.297Z,101928.75
2022-11-27T05:34:05.454Z,101919.00
2022-11-27T05:36:33.040Z,101917.47
2022-11-27T05:39:06.311Z,101932.00
2022-11-27T05:41:34.129Z,101917.72
2022-11-27T05:44:00.629Z,101925.97
2022-11-27T05:46:27.294Z,101908.91
2022-11-27T05:48:53.777Z,101908.38
2022-11-27T05:51:20.267Z,101910.97
2022-11-27T05:53:46.768Z,101909.56
2022-11-27T05:56:16.039Z,101912.47
2022-11-27T05:58:44.438Z,101909.78
2022-11-27T06:01:12.057Z,101897.25
2022-11-27T06:03:41.426Z,101899.84
2022-11-27T06:06:09.417Z,101899.06
2022-11-27T06:08:39.773Z,101904.97
2022-11-27T06:11:11.500Z,101893.16
2022-11-27T06:13:38.159Z,101900.47
2022-11-27T06:16:11.157Z,101899.91
2022-11-27T06:18:37.770Z,101891.47
2022-11-27T06:21:09.534Z,101895.97
2022-11-27T06:23:36.691Z,101889.53
2022-11-27T06:26:10.471Z,101888.34
2022-11-27T06:28:37.366Z,101888.47
2022-11-27T06:31:13.115Z,101894.03
2022-11-27T06:33:42.829Z,101888.34
2022-11-27T06:36:09.976Z,101889.34
2022-11-27T06:38:37.449Z,101877.22
2022-11-27T06:41:06.385Z,101881.16
2022-11-27T06:43:33.677Z,101885.78
2022-11-27T06:46:01.229Z,101878.59
2022-11-27T06:48:27.975Z,101879.56
2022-11-27T06:50:54.814Z,101867.44
2022-11-27T06:53:21.359Z,101862.84
2022-11-27T06:55:47.866Z,101853.94
2022-11-27T06:58:14.362Z,101860.38
2022-11-27T07:00:41.338Z,101866.59
2022-11-27T07:03:07.872Z,101849.75
2022-11-27T07:05:35.772Z,101853.22
2022-11-27T07:08:02.444Z,101854.03
2022-11-27T07:10:29.157Z,101863.06
2022-11-27T07:12:55.653Z,101850.00
2022-11-27T07:15:22.163Z,101848.47
2022-11-27T07:17:48.587Z,101842.78
2022-11-27T07:20:15.285Z,101840.75
2022-11-27T07:22:41.790Z,101841.28
2022-11-27T07:25:08.596Z,101839.88
2022-11-27T07:27:35.032Z,101834.13
2022-11-27T07:30:01.677Z,101836.25
2022-11-27T07:32:29.300Z,101832.06
2022-11-27T07:34:55.706Z,101824.88
2022-11-27T07:37:22.305Z,101822.63
2022-11-27T07:40:02.569Z,101815.03
2022-11-27T07:42:37.940Z,101820.06
2022-11-27T07:45:05.924Z,101821.34
2022-11-27T07:47:32.364Z,101818.66
2022-11-27T07:50:00.561Z,101810.50
2022-11-27T07:52:27.700Z,101807.75
2022-11-27T07:54:54.357Z,101801.09
2022-11-27T07:57:20.940Z,101807.09
2022-11-27T07:59:47.814Z,101792.00
2022-11-27T08:02:15.003Z,101792.19
2022-11-27T08:04:41.930Z,101794.13
2022-11-27T08:07:08.681Z,101794.22
2022-11-27T08:09:35.308Z,101794.47
2022-11-27T08:12:01.852Z,101782.88
2022-11-27T08:14:28.291Z,101779.66
2022-11-27T08:16:54.814Z,101780.09
2022-11-27T08:19:21.859Z,101765.06
2022-11-27T08:21:48.271Z,101771.09
2022-11-27T08:24:14.759Z,101774.72
2022-11-27T08:26:41.276Z,101768.06
2022-11-27T08:29:10.911Z,101766.88
2022-11-27T08:31:37.593Z,101773.13
2022-11-27T08:34:04.149Z,101772.69
2022-11-27T08:36:30.612Z,101785.97
2022-11-27T08:38:57.251Z,101792.63
2022-11-27T08:41:23.754Z,101790.47
2022-11-27T08:43:50.208Z,101793.81
2022-11-27T08:46:16.683Z,101785.97
2022-11-27T08:48:43.419Z,101792.41
2022-11-27T08:51:12.797Z,101775.91
2022-11-27T08:53:40.060Z,101779.66
2022-11-27T08:56:22.206Z,101772.91
2022-11-27T08:58:49.186Z,101774.50
2022-11-27T09:01:21.564Z,101768.72
2022-11-27T09:03:48.989Z,101770.13
2022-11-27T09:06:23.842Z,101777.91
2022-11-27T09:08:50.785Z,101779.78
2022-11-27T09:11:19.390Z,101763.13
2022-11-27T09:13:46.457Z,101775.25
2022-11-27T09:16:15.876Z,101770.41
2022-11-27T09:18:46.645Z,101763.13
2022-11-27T09:21:15.338Z,101763.47
2022-11-27T09:23:42.042Z,101774.59
2022-11-27T09:26:11.411Z,101765.59
2022-11-27T09:28:39.353Z,101757.84
2022-11-27T09:31:07.357Z,101764.06
2022-11-27T09:33:35.931Z,101762.47
2022-11-27T09:36:07.776Z,101763.84
2022-11-27T09:38:34.433Z,101763.22
2022-11-27T09:41:18.565Z,101769.22
2022-11-27T09:43:59.574Z,101762.78
2022-11-27T09:46:32.943Z,101758.63
2022-11-27T09:49:02.891Z,101760.00
2022-11-27T09:51:51.233Z,101764.16
2022-11-27T09:54:26.062Z,101763.97
2022-11-27T09:56:54.822Z,101753.44
2022-11-27T09:59:25.542Z,101750.97
2022-11-27T10:01:52.147Z,101745.50
2022-11-27T10:04:20.838Z,101733.19
2022-11-27T10:07:02.395Z,101741.97
2022-11-27T10:09:46.805Z,101733.69
2022-11-27T10:12:38.219Z,101734.22
2022-11-27T10:15:13.238Z,101728.78
2022-11-27T10:17:41.950Z,101728.44
2022-11-27T10:20:20.634Z,101717.50
2022-11-27T10:23:02.247Z,101705.59
2022-11-27T10:25:39.497Z,101709.63
2022-11-27T10:28:30.855Z,101704.03
2022-11-27T10:31:09.482Z,101701.34
2022-11-27T10:33:45.206Z,101704.16
2022-11-27T10:36:18.939Z,101696.22
2022-11-27T10:38:46.680Z,101699.28
2022-11-27T10:44:42.976Z,101703.06
2022-11-27T10:47:12.895Z,101684.50
2022-11-27T10:49:41.111Z,101686.97
2022-11-27T10:52:16.602Z,101689.78
2022-11-27T10:54:45.597Z,101681.59
2022-11-27T10:57:28.271Z,101697.56
2022-11-27T11:00:05.316Z,101677.38
2022-11-27T11:02:33.267Z,101671.44
2022-11-27T11:05:35.076Z,101664.72
2022-11-27T11:08:14.455Z,101651.16
2022-11-27T11:10:58.111Z,101643.59
2022-11-27T11:13:29.638Z,101644.09
2022-11-27T11:16:14.648Z,101641.06
2022-11-27T11:18:52.700Z,101642.78
2022-11-27T11:21:27.850Z,101632.19
2022-11-27T11:24:22.225Z,101625.97
2022-11-27T11:26:55.469Z,101617.91
2022-11-27T11:29:59.958Z,101612.19
2022-11-27T11:32:30.916Z,101607.81
2022-11-27T11:35:05.007Z,101611.34
2022-11-27T11:37:31.468Z,101606.59
2022-11-27T11:40:00.805Z,101597.56
2022-11-27T11:42:31.730Z,101594.88
2022-11-27T11:45:19.029Z,101584.41
2022-11-27T11:47:51.485Z,101594.66
2022-11-27T11:50:43.050Z,101591.25
2022-11-27T11:53:24.198Z,101582.19
2022-11-27T11:56:06.032Z,101570.50
2022-11-27T11:58:35.321Z,101577.78
2022-11-27T12:01:26.862Z,101548.66
2022-11-27T12:04:14.385Z,101550.25
2022-11-27T12:06:47.052Z,101544.13
2022-11-27T12:09:38.303Z,101543.91
2022-11-27T12:12:46.272Z,101538.78
2022-11-27T12:15:39.964Z,101531.34
2022-11-27T12:18:13.912Z,101524.16
2022-11-27T12:20:41.177Z,101511.56
2022-11-27T12:23:41.825Z,101504.09
2022-11-27T12:26:36.899Z,101501.56
2022-11-27T12:29:35.381Z,101491.31
2022-11-27T12:32:26.435Z,101481.19
2022-11-27T12:35:27.636Z,101483.13
2022-11-27T12:37:54.040Z,101479.22
2022-11-27T12:40:29.220Z,101495.72
2022-11-27T12:43:31.133Z,101481.28
2022-11-27T12:46:14.808Z,101487.03
2022-11-27T12:49:04.797Z,101488.63
2022-11-27T12:51:42.269Z,101476.06
2022-11-27T12:54:23.484Z,101488.75
2022-11-27T12:56:58.134Z,101480.81
2022-11-27T12:59:35.373Z,101480.81
2022-11-27T13:02:27.492Z,101479.84
2022-11-27T13:05:37.563Z,101480.22
2022-11-27T13:08:21.858Z,101464.69
2022-11-27T13:10:56.732Z,101465.22
2022-11-27T13:13:34.139Z,101454.34
2022-11-27T13:16:18.952Z,101450.94
2022-11-27T13:18:52.297Z,101430.41
2022-11-27T13:21:24.933Z,101431.50
2022-11-27T13:23:51.784Z,101431.50
2022-11-27T13:26:31.703Z,101439.47
2022-11-27T13:29:02.048Z,101448.72
2022-11-27T13:31:33.137Z,101446.03
2022-11-27T13:34:04.834Z,101448.63
2022-11-27T13:36:40.716Z,101444.44
2022-11-27T13:39:21.445Z,101437.97
2022-11-27T13:41:49.092Z,101427.50
2022-11-27T13:44:27.719Z,101420.44
2022-11-27T13:46:59.117Z,101420.78
2022-11-27T13:49:32.333Z,101408.69
2022-11-27T13:52:15.099Z,101407.00
2022-11-27T13:54:59.346Z,101407.13
2022-11-27T13:57:27.450Z,101402.13
2022-11-27T14:00:18.128Z,101400.78
2022-11-27T14:02:48.963Z,101402.84
2022-11-27T14:05:21.560Z,101397.38
2022-11-27T14:07:52.417Z,101397.63
2022-11-27T14:10:31.303Z,101376.16
2022-11-27T14:13:09.907Z,101373.81
2022-11-27T14:15:38.339Z,101381.66
2022-11-27T14:18:18.282Z,101382.72
2022-11-27T14:20:51.356Z,101384.69
2022-11-27T14:23:32.495Z,101371.66
2022-11-27T14:26:18.697Z,101365.91
2022-11-27T14:28:50.550Z,101364.69
2022-11-27T14:31:35.643Z,101362.50
2022-11-27T14:34:23.246Z,101353.72
2022-11-27T14:36:52.293Z,101352.25
2022-11-27T14:39:37.648Z,101342.22
2022-11-27T14:42:07.987Z,101343.72
2022-11-27T14:44:34.739Z,101326.03
2022-11-27T14:47:06.745Z,101318.13
2022-11-27T14:49:34.106Z,101314.91
2022-11-27T14:52:05.233Z,101313.22
2022-11-27T14:54:35.581Z,101298.19
2022-11-27T14:57:02.520Z,101301.16
2022-11-27T14:59:29.178Z,101303.22
2022-11-27T15:02:00.215Z,101303.94
2022-11-27T15:04:32.988Z,101303.31
2022-11-27T15:06:59.748Z,101292.00
2022-11-27T15:09:43.350Z,101289.50
2022-11-27T15:12:20.801Z,101285.63
2022-11-27T15:14:55.198Z,101296.97
2022-11-27T15:17:26.485Z,101287.56
2022-11-27T15:19:53.881Z,101282.19
2022-11-27T15:22:20.626Z,101280.84
2022-11-27T15:24:57.809Z,101284.63
2022-11-27T15:27:24.316Z,101288.16
2022-11-27T15:29:50.692Z,101281.31
2022-11-27T15:32:23.160Z,101279.59
2022-11-27T15:34:51.980Z,101269.97
2022-11-27T15:37:30.960Z,101270.31
2022-11-27T15:39:58.727Z,101266.91
2022-11-27T15:42:28.281Z,101259.44
2022-11-27T15:44:58.447Z,101250.78
2022-11-27T15:47:27.906Z,101254.09
2022-11-27T15:49:54.435Z,101244.06
2022-11-27T15:52:21.528Z,101240.97
2022-11-27T15:54:47.977Z,101239.53
2022-11-27T15:57:14.331Z,101241.72
2022-11-27T15:59:40.838Z,101244.28
2022-11-27T16:02:08.885Z,101250.03
2022-11-27T16:04:40.315Z,101248.22
2022-11-27T16:07:08.140Z,101244.66
2022-11-27T16:09:35.923Z,101236.34
2022-11-27T16:12:03.149Z,101237.56
2022-11-27T16:14:29.602Z,101241.59
2022-11-27T16:16:56.301Z,101235.97
2022-11-27T16:19:22.847Z,101226.34
2022-11-27T16:21:49.313Z,101234.00
2022-11-27T16:24:15.852Z,101232.16
2022-11-27T16:26:42.565Z,101216.16
2022-11-27T16:29:10.551Z,101211.78
2022-11-27T16:31:37.344Z,101211.91
2022-11-27T16:34:05.823Z,101199.34
2022-11-27T16:36:32.487Z,101209.50
2022-11-27T16:38:58.997Z,101200.59
2022-11-27T16:41:26.176Z,101202.41
2022-11-27T16:43:56.185Z,101196.34
2022-11-27T16:46:28.275Z,101195.47
2022-11-27T16:48:56.508Z,101185.84
2022-11-27T16:51:32.122Z,101176.53
2022-11-27T16:54:01.263Z,101180.47
2022-11-27T16:56:29.299Z,101186.31
2022-11-27T16:59:02.261Z,101172.16
2022-11-27T17:01:34.126Z,101171.63
2022-11-27T17:04:01.165Z,101162.16
2022-11-27T17:06:30.748Z,101151.81
2022-11-27T17:08:59.361Z,101159.00
2022-11-27T17:11:28.904Z,101162.09
2022-11-27T17:14:00.293Z,101157.53
2022-11-27T17:16:27.392Z,101157.53
2022-11-27T17:18:53.999Z,101153.63
2022-11-27T17:21:27.234Z,101152.53
2022-11-27T17:24:02.640Z,101150.09
2022-11-27T17:26:30.596Z,101151.22
2022-11-27T17:28:57.476Z,101140.72
2022-11-27T17:31:32.661Z,101140.63
2022-11-27T17:34:00.024Z,101140.06
2022-11-27T17:36:27.996Z,101139.34
2022-11-27T17:38:54.714Z,101137.53
2022-11-27T17:41:22.434Z,101140.22
2022-11-27T17:43:49.650Z,101136.94
2022-11-27T17:46:19.348Z,101130.59
2022-11-27T17:48:46.199Z,101127.03
2022-11-27T17:51:12.996Z,101118.03
2022-11-27T17:53:40.500Z,101124.09
2022-11-27T17:56:09.874Z,101120.56
2022-11-27T17:58:37.477Z,101119.25
2022-11-27T18:01:06.068Z,101116.56
2022-11-27T18:03:33.680Z,101110.47
2022-11-27T18:06:04.879Z,101113.69
2022-11-27T18:08:31.757Z,101109.31
2022-11-27T18:11:05.066Z,101111.25
2022-11-27T18:13:32.593Z,101100.53
2022-11-27T18:16:11.474Z,101094.19
2022-11-27T18:18:38.815Z,101097.13
2022-11-27T18:21:18.368Z,101088.63
2022-11-27T18:24:20.776Z,101084.97
2022-11-27T18:27:00.573Z,101081.94
2022-11-27T18:29:20.633Z,101076.56
2022-11-27T18:31:47.711Z,101079.91
2022-11-27T18:34:14.325Z,101076.38
2022-11-27T18:36:40.804Z,101073.44
2022-11-27T18:39:07.244Z,101071.84
2022-11-27T18:41:34.739Z,101063.34
2022-11-27T18:44:01.291Z,101065.78
2022-11-27T18:46:27.875Z,101061.38
2022-11-27T18:48:56.631Z,101055.91
2022-11-27T18:51:24.661Z,101058.00
2022-11-27T18:53:52.098Z,101057.13
2022-11-27T18:56:21.735Z,101060.28
2022-11-27T18:58:48.463Z,101053.88
2022-11-27T19:01:24.468Z,101051.19
2022-11-27T19:03:51.767Z,101045.69
2022-11-27T19:06:20.719Z,101043.16
2022-11-27T19:08:48.053Z,101044.56
2022-11-27T19:11:17.168Z,101036.91
2022-11-27T19:13:45.433Z,101030.84
2022-11-27T19:16:20.901Z,101036.06
2022-11-27T19:18:47.837Z,101037.03
2022-11-27T19:21:18.310Z,101017.03
2022-11-27T19:23:45.315Z,101024.28
2022-11-27T19:26:14.533Z,101019.97
2022-11-27T19:28:41.297Z,101021.09
2022-11-27T19:31:10.228Z,101020.47
2022-11-27T19:33:38.125Z,101017.69
2022-11-27T19:36:10.454Z,101019.06
2022-11-27T19:38:38.217Z,101020.03
2022-11-27T19:41:09.948Z,101012.53
2022-11-27T19:43:36.422Z,101004.94
2022-11-27T19:46:02.947Z,101000.28
2022-11-27T19:48:29.419Z,100996.50
2022-11-27T19:51:01.357Z,100997.84
2022-11-27T19:53:27.767Z,100995.78
2022-11-27T19:55:54.954Z,100994.53
2022-11-27T19:58:21.497Z,100986.88
2022-11-27T20:00:48.134Z,100979.75
2022-11-27T20:03:14.728Z,100978.47
2022-11-27T20:05:41.092Z,100981.06
2022-11-27T20:08:07.604Z,100971.19
2022-11-27T20:10:34.059Z,100962.03
2022-11-27T20:13:02.153Z,100953.53
2022-11-27T20:15:29.477Z,100945.22
2022-11-27T20:17:55.927Z,100938.75
2022-11-27T20:20:22.684Z,100935.72
2022-11-27T20:22:50.339Z,100926.81
2022-11-27T20:25:19.915Z,100920.09
2022-11-27T20:27:47.013Z,100921.91
2022-11-27T20:30:13.665Z,100911.31
2022-11-27T20:32:40.115Z,100920.88
2022-11-27T20:35:06.761Z,100916.75
2022-11-27T20:37:33.905Z,100907.66
2022-11-27T20:40:00.401Z,100909.25
2022-11-27T20:42:26.924Z,100900.59
2022-11-27T20:44:53.359Z,100893.41
2022-11-27T20:47:19.793Z,100894.53
2022-11-27T20:49:46.263Z,100895.09
2022-11-27T20:52:14.502Z,100892.75
2022-11-27T20:54:41.096Z,100890.06
2022-11-27T20:57:08.841Z,100895.09
2022-11-27T20:59:35.372Z,100886.66
2022-11-27T21:02:02.833Z,100884.44
2022-11-27T21:04:29.323Z,100878.72
2022-11-27T21:06:58.449Z,100888.16
2022-11-27T21:09:24.993Z,100877.88
2022-11-27T21:11:51.435Z,100888.91
2022-11-27T21:14:18.679Z,100878.53
2022-11-27T21:16:48.600Z,100876.97
2022-11-27T21:19:24.228Z,100867.81
2022-11-27T21:21:52.236Z,100870.84
2022-11-27T21:24:19.868Z,100860.78
2022-11-27T21:26:47.381Z,100863.72
2022-11-27T21:29:15.050Z,100860.03
2022-11-27T21:31:46.458Z,100853.44
2022-11-27T21:34:13.889Z,100843.88
2022-11-27T21:36:40.401Z,100847.81
2022-11-27T21:39:08.567Z,100837.78
2022-11-27T21:41:35.953Z,100845.56
2022-11-27T21:44:03.763Z,100833.56
2022-11-27T21:46:30.962Z,100839.03
2022-11-27T21:49:00.112Z,100824.13
2022-11-27T21:51:27.754Z,100826.22
2022-11-27T21:53:55.566Z,100829.59
2022-11-27T21:56:24.112Z,100821.25
2022-11-27T21:58:51.600Z,100816.75
2022-11-27T22:01:20.812Z,100827.47
2022-11-27T22:03:50.144Z,100817.19
2022-11-27T22:06:18.816Z,100807.84
2022-11-27T22:08:46.493Z,100805.03
2022-11-27T22:11:17.132Z,100803.91
2022-11-27T22:13:43.687Z,100798.69
2022-11-27T22:16:18.509Z,100801.97
2022-11-27T22:18:46.375Z,100787.81
2022-11-27T22:21:13.943Z,100791.63
2022-11-27T22:23:40.966Z,100791.94
2022-11-27T22:26:12.912Z,100789.38
2022-11-27T22:28:39.651Z,100780.19
2022-11-27T22:31:13.380Z,100780.34
2022-11-27T22:33:41.294Z,100777.13
2022-11-27T22:36:19.209Z,100768.50
2022-11-27T22:38:47.183Z,100754.81
2022-11-27T22:41:15.342Z,100755.25
2022-11-27T22:43:42.617Z,100741.44
2022-11-27T22:46:18.516Z,100748.34
2022-11-27T22:48:45.878Z,100750.47
2022-11-27T22:51:12.547Z,100748.78
2022-11-27T22:53:39.443Z,100750.59
2022-11-27T22:56:07.392Z,100743.84
2022-11-27T22:58:38.394Z,100738.91
2022-11-27T23:01:18.746Z,100743.25
2022-11-27T23:03:45.738Z,100737.34
2022-11-27T23:06:14.587Z,100739.28
2022-11-27T23:08:43.265Z,100726.34
2022-11-27T23:11:13.419Z,100726.03
2022-11-27T23:13:41.158Z,100719.00
2022-11-27T23:16:11.030Z,100727.75
2022-11-27T23:18:38.539Z,100714.31
2022-11-27T23:21:09.927Z,100724.91
2022-11-27T23:23:36.775Z,100717.72
2022-11-27T23:26:07.941Z,100711.91
2022-11-27T23:28:36.540Z,100711.81
2022-11-27T23:31:28.938Z,100714.31
2022-11-27T23:33:56.265Z,100711.25
2022-11-27T23:36:23.069Z,100711.25
2022-11-27T23:38:49.526Z,100706.69
2022-11-27T23:41:18.967Z,100700.63
2022-11-27T23:43:45.551Z,100704.44
2022-11-27T23:46:14.711Z,100697.41
2022-11-27T23:48:42.439Z,100692.31
2022-11-27T23:51:10.201Z,100690.91
2022-11-27T23:53:37.613Z,100689.63
2022-11-27T23:56:16.565Z,100688.06
2022-11-27T23:58:46.991Z,100690.75
